sensor_id;sensor_type;location;lat;lon;timestamp;P1;durP1;ratioP1;P2;durP2;ratioP2
73872;SDS011;62206;47.568;9.364;2023-12-20T00:00:30;11.75;;;10.10;;
73872;SDS011;62206;47.568;9.364;2023-12-20T00:02:57;11.03;;;9.40;;
73872;SDS011;62206;47.568;9.364;2023-12-20T00:05:24;14.15;;;9.45;;
73872;SDS011;62206;47.568;9.364;2023-12-20T00:07:51;11.30;;;9.65;;
73872;SDS011;62206;47.568;9.364;2023-12-20T00:10:19;11.43;;;9.40;;
73872;SDS011;62206;47.568;9.364;2023-12-20T00:12:46;11.93;;;9.63;;
73872;SDS011;62206;47.568;9.364;2023-12-20T00:15:13;12.77;;;9.10;;
73872;SDS011;62206;47.568;9.364;2023-12-20T00:17:40;11.38;;;8.77;;
73872;SDS011;62206;47.568;9.364;2023-12-20T00:20:07;10.45;;;8.70;;
73872;SDS011;62206;47.568;9.364;2023-12-20T00:22:35;9.55;;;7.50;;
73872;SDS011;62206;47.568;9.364;2023-12-20T00:25:02;9.07;;;8.13;;
73872;SDS011;62206;47.568;9.364;2023-12-20T00:27:31;9.43;;;7.07;;
73872;SDS011;62206;47.568;9.364;2023-12-20T00:29:58;8.30;;;7.50;;
73872;SDS011;62206;47.568;9.364;2023-12-20T00:32:25;9.10;;;7.55;;
73872;SDS011;62206;47.568;9.364;2023-12-20T00:34:52;9.05;;;7.43;;
73872;SDS011;62206;47.568;9.364;2023-12-20T00:37:19;8.93;;;8.02;;
73872;SDS011;62206;47.568;9.364;2023-12-20T00:39:46;8.30;;;7.50;;
73872;SDS011;62206;47.568;9.364;2023-12-20T00:42:13;8.65;;;7.75;;
73872;SDS011;62206;47.568;9.364;2023-12-20T00:44:41;9.55;;;8.55;;
73872;SDS011;62206;47.568;9.364;2023-12-20T00:47:08;8.07;;;7.20;;
73872;SDS011;62206;47.568;9.364;2023-12-20T00:49:35;8.05;;;7.25;;
73872;SDS011;62206;47.568;9.364;2023-12-20T00:52:03;8.13;;;6.93;;
73872;SDS011;62206;47.568;9.364;2023-12-20T00:54:30;8.73;;;7.78;;
73872;SDS011;62206;47.568;9.364;2023-12-20T00:56:57;8.07;;;7.18;;
73872;SDS011;62206;47.568;9.364;2023-12-20T00:59:25;8.57;;;7.68;;
73872;SDS011;62206;47.568;9.364;2023-12-20T01:01:53;9.00;;;7.45;;
73872;SDS011;62206;47.568;9.364;2023-12-20T01:04:20;8.57;;;6.90;;
73872;SDS011;62206;47.568;9.364;2023-12-20T01:06:47;8.50;;;7.60;;
73872;SDS011;62206;47.568;9.364;2023-12-20T01:09:14;8.82;;;7.50;;
73872;SDS011;62206;47.568;9.364;2023-12-20T01:11:41;8.48;;;7.68;;
73872;SDS011;62206;47.568;9.364;2023-12-20T01:14:08;9.15;;;7.65;;
73872;SDS011;62206;47.568;9.364;2023-12-20T01:16:35;9.00;;;7.53;;
73872;SDS011;62206;47.568;9.364;2023-12-20T01:19:03;10.38;;;7.85;;
73872;SDS011;62206;47.568;9.364;2023-12-20T01:21:31;9.07;;;8.00;;
73872;SDS011;62206;47.568;9.364;2023-12-20T01:23:57;10.25;;;8.15;;
73872;SDS011;62206;47.568;9.364;2023-12-20T01:26:24;10.30;;;8.50;;
73872;SDS011;62206;47.568;9.364;2023-12-20T01:28:52;9.57;;;7.80;;
73872;SDS011;62206;47.568;9.364;2023-12-20T01:31:19;10.02;;;8.95;;
73872;SDS011;62206;47.568;9.364;2023-12-20T01:33:45;10.10;;;8.50;;
73872;SDS011;62206;47.568;9.364;2023-12-20T01:36:14;9.70;;;7.93;;
73872;SDS011;62206;47.568;9.364;2023-12-20T01:38:41;10.27;;;8.65;;
73872;SDS011;62206;47.568;9.364;2023-12-20T01:41:08;9.83;;;8.63;;
73872;SDS011;62206;47.568;9.364;2023-12-20T01:43:35;10.40;;;9.05;;
73872;SDS011;62206;47.568;9.364;2023-12-20T01:46:02;9.88;;;8.60;;
73872;SDS011;62206;47.568;9.364;2023-12-20T01:48:29;9.30;;;8.23;;
73872;SDS011;62206;47.568;9.364;2023-12-20T01:50:58;10.40;;;8.63;;
73872;SDS011;62206;47.568;9.364;2023-12-20T01:53:27;10.50;;;8.67;;
73872;SDS011;62206;47.568;9.364;2023-12-20T01:55:54;9.98;;;8.80;;
73872;SDS011;62206;47.568;9.364;2023-12-20T01:58:23;11.05;;;9.15;;
73872;SDS011;62206;47.568;9.364;2023-12-20T02:00:50;10.48;;;8.45;;
73872;SDS011;62206;47.568;9.364;2023-12-20T02:03:17;9.95;;;8.65;;
73872;SDS011;62206;47.568;9.364;2023-12-20T02:05:44;10.77;;;9.37;;
73872;SDS011;62206;47.568;9.364;2023-12-20T02:08:12;10.55;;;8.82;;
73872;SDS011;62206;47.568;9.364;2023-12-20T02:10:40;12.07;;;9.20;;
73872;SDS011;62206;47.568;9.364;2023-12-20T02:13:08;9.70;;;8.70;;
73872;SDS011;62206;47.568;9.364;2023-12-20T02:15:35;10.18;;;9.13;;
73872;SDS011;62206;47.568;9.364;2023-12-20T02:18:02;9.90;;;8.60;;
73872;SDS011;62206;47.568;9.364;2023-12-20T02:20:30;10.80;;;9.13;;
73872;SDS011;62206;47.568;9.364;2023-12-20T02:22:58;9.45;;;8.55;;
73872;SDS011;62206;47.568;9.364;2023-12-20T02:25:25;11.43;;;9.35;;
73872;SDS011;62206;47.568;9.364;2023-12-20T02:27:52;9.70;;;8.68;;
73872;SDS011;62206;47.568;9.364;2023-12-20T02:30:19;9.77;;;8.30;;
73872;SDS011;62206;47.568;9.364;2023-12-20T02:32:46;10.32;;;8.93;;
73872;SDS011;62206;47.568;9.364;2023-12-20T02:35:13;10.68;;;8.85;;
73872;SDS011;62206;47.568;9.364;2023-12-20T02:37:40;10.70;;;8.77;;
73872;SDS011;62206;47.568;9.364;2023-12-20T02:40:09;10.43;;;9.20;;
73872;SDS011;62206;47.568;9.364;2023-12-20T02:42:36;10.30;;;8.47;;
73872;SDS011;62206;47.568;9.364;2023-12-20T02:45:03;10.48;;;8.05;;
73872;SDS011;62206;47.568;9.364;2023-12-20T02:47:31;11.15;;;9.75;;
73872;SDS011;62206;47.568;9.364;2023-12-20T02:49:58;9.85;;;8.45;;
73872;SDS011;62206;47.568;9.364;2023-12-20T02:52:25;10.68;;;9.25;;
73872;SDS011;62206;47.568;9.364;2023-12-20T02:54:53;10.00;;;7.77;;
73872;SDS011;62206;47.568;9.364;2023-12-20T02:57:22;10.60;;;9.07;;
73872;SDS011;62206;47.568;9.364;2023-12-20T02:59:49;10.43;;;9.30;;
73872;SDS011;62206;47.568;9.364;2023-12-20T03:02:15;9.90;;;7.70;;
73872;SDS011;62206;47.568;9.364;2023-12-20T03:04:43;10.15;;;8.23;;
73872;SDS011;62206;47.568;9.364;2023-12-20T03:07:10;9.50;;;8.10;;
73872;SDS011;62206;47.568;9.364;2023-12-20T03:09:37;9.23;;;7.63;;
73872;SDS011;62206;47.568;9.364;2023-12-20T03:12:04;9.20;;;7.15;;
73872;SDS011;62206;47.568;9.364;2023-12-20T03:14:33;10.57;;;8.90;;
73872;SDS011;62206;47.568;9.364;2023-12-20T03:16:59;9.68;;;8.43;;
73872;SDS011;62206;47.568;9.364;2023-12-20T03:19:27;8.93;;;8.03;;
73872;SDS011;62206;47.568;9.364;2023-12-20T03:21:54;9.43;;;8.43;;
73872;SDS011;62206;47.568;9.364;2023-12-20T03:24:21;8.48;;;7.57;;
73872;SDS011;62206;47.568;9.364;2023-12-20T03:26:49;8.55;;;7.10;;
73872;SDS011;62206;47.568;9.364;2023-12-20T03:29:15;9.55;;;7.97;;
73872;SDS011;62206;47.568;9.364;2023-12-20T03:31:44;8.47;;;6.50;;
73872;SDS011;62206;47.568;9.364;2023-12-20T03:34:11;9.45;;;8.00;;
73872;SDS011;62206;47.568;9.364;2023-12-20T03:36:38;8.93;;;8.02;;
73872;SDS011;62206;47.568;9.364;2023-12-20T03:39:05;8.95;;;6.50;;
73872;SDS011;62206;47.568;9.364;2023-12-20T03:41:32;9.93;;;7.57;;
73872;SDS011;62206;47.568;9.364;2023-12-20T03:43:59;9.33;;;7.67;;
73872;SDS011;62206;47.568;9.364;2023-12-20T03:46:26;7.63;;;6.80;;
73872;SDS011;62206;47.568;9.364;2023-12-20T03:48:55;9.05;;;7.88;;
73872;SDS011;62206;47.568;9.364;2023-12-20T03:51:22;9.82;;;7.82;;
73872;SDS011;62206;47.568;9.364;2023-12-20T03:53:49;9.50;;;8.02;;
73872;SDS011;62206;47.568;9.364;2023-12-20T03:56:16;8.50;;;7.60;;
73872;SDS011;62206;47.568;9.364;2023-12-20T03:58:43;8.35;;;7.35;;
73872;SDS011;62206;47.568;9.364;2023-12-20T04:01:10;9.38;;;7.80;;
73872;SDS011;62206;47.568;9.364;2023-12-20T04:03:38;8.48;;;7.18;;
73872;SDS011;62206;47.568;9.364;2023-12-20T04:06:06;8.52;;;7.43;;
73872;SDS011;62206;47.568;9.364;2023-12-20T04:08:33;7.73;;;6.93;;
73872;SDS011;62206;47.568;9.364;2023-12-20T04:11:01;8.30;;;6.57;;
73872;SDS011;62206;47.568;9.364;2023-12-20T04:13:28;8.57;;;7.07;;
73872;SDS011;62206;47.568;9.364;2023-12-20T04:15:54;7.53;;;6.75;;
73872;SDS011;62206;47.568;9.364;2023-12-20T04:18:22;11.73;;;9.60;;
73872;SDS011;62206;47.568;9.364;2023-12-20T04:20:49;9.90;;;8.30;;
73872;SDS011;62206;47.568;9.364;2023-12-20T04:23:18;9.05;;;8.00;;
73872;SDS011;62206;47.568;9.364;2023-12-20T04:25:45;8.68;;;7.78;;
73872;SDS011;62206;47.568;9.364;2023-12-20T04:28:12;8.50;;;7.38;;
73872;SDS011;62206;47.568;9.364;2023-12-20T04:30:39;7.88;;;6.43;;
73872;SDS011;62206;47.568;9.364;2023-12-20T04:33:06;7.10;;;6.10;;
73872;SDS011;62206;47.568;9.364;2023-12-20T04:35:33;8.90;;;7.43;;
73872;SDS011;62206;47.568;9.364;2023-12-20T04:38:00;10.60;;;7.80;;
73872;SDS011;62206;47.568;9.364;2023-12-20T04:40:29;9.75;;;7.28;;
73872;SDS011;62206;47.568;9.364;2023-12-20T04:42:56;9.10;;;7.80;;
73872;SDS011;62206;47.568;9.364;2023-12-20T04:45:23;9.13;;;7.57;;
73872;SDS011;62206;47.568;9.364;2023-12-20T04:47:51;8.52;;;7.43;;
73872;SDS011;62206;47.568;9.364;2023-12-20T04:50:18;9.02;;;8.00;;
73872;SDS011;62206;47.568;9.364;2023-12-20T04:52:46;9.27;;;8.23;;
73872;SDS011;62206;47.568;9.364;2023-12-20T04:55:14;9.95;;;8.32;;
73872;SDS011;62206;47.568;9.364;2023-12-20T04:57:41;8.67;;;7.37;;
73872;SDS011;62206;47.568;9.364;2023-12-20T05:00:08;9.52;;;8.52;;
73872;SDS011;62206;47.568;9.364;2023-12-20T05:02:37;9.45;;;8.45;;
73872;SDS011;62206;47.568;9.364;2023-12-20T05:05:04;9.20;;;7.82;;
73872;SDS011;62206;47.568;9.364;2023-12-20T05:07:31;9.52;;;7.60;;
73872;SDS011;62206;47.568;9.364;2023-12-20T05:09:58;8.32;;;7.53;;
73872;SDS011;62206;47.568;9.364;2023-12-20T05:12:25;8.13;;;7.03;;
73872;SDS011;62206;47.568;9.364;2023-12-20T05:14:53;9.13;;;8.23;;
73872;SDS011;62206;47.568;9.364;2023-12-20T05:17:21;8.88;;;7.40;;
73872;SDS011;62206;47.568;9.364;2023-12-20T05:19:47;8.57;;;6.93;;
73872;SDS011;62206;47.568;9.364;2023-12-20T05:22:14;7.28;;;6.57;;
73872;SDS011;62206;47.568;9.364;2023-12-20T05:24:43;8.30;;;7.03;;
73872;SDS011;62206;47.568;9.364;2023-12-20T05:27:09;7.65;;;6.85;;
73872;SDS011;62206;47.568;9.364;2023-12-20T05:29:36;7.95;;;7.15;;
73872;SDS011;62206;47.568;9.364;2023-12-20T05:32:06;7.93;;;7.20;;
73872;SDS011;62206;47.568;9.364;2023-12-20T05:34:33;8.40;;;7.60;;
73872;SDS011;62206;47.568;9.364;2023-12-20T05:36:59;8.10;;;7.30;;
73872;SDS011;62206;47.568;9.364;2023-12-20T05:39:27;8.43;;;7.63;;
73872;SDS011;62206;47.568;9.364;2023-12-20T05:41:56;9.38;;;7.63;;
73872;SDS011;62206;47.568;9.364;2023-12-20T05:44:23;7.80;;;6.73;;
73872;SDS011;62206;47.568;9.364;2023-12-20T05:46:50;8.50;;;7.70;;
73872;SDS011;62206;47.568;9.364;2023-12-20T05:49:18;8.32;;;7.53;;
73872;SDS011;62206;47.568;9.364;2023-12-20T05:51:47;8.18;;;7.38;;
73872;SDS011;62206;47.568;9.364;2023-12-20T05:54:14;8.23;;;7.00;;
73872;SDS011;62206;47.568;9.364;2023-12-20T05:56:41;9.90;;;8.70;;
73872;SDS011;62206;47.568;9.364;2023-12-20T05:59:08;9.75;;;8.75;;
73872;SDS011;62206;47.568;9.364;2023-12-20T06:01:35;9.70;;;8.60;;
73872;SDS011;62206;47.568;9.364;2023-12-20T06:04:02;8.52;;;7.60;;
73872;SDS011;62206;47.568;9.364;2023-12-20T06:06:31;9.20;;;8.18;;
73872;SDS011;62206;47.568;9.364;2023-12-20T06:08:58;9.30;;;8.33;;
73872;SDS011;62206;47.568;9.364;2023-12-20T06:11:25;8.35;;;6.90;;
73872;SDS011;62206;47.568;9.364;2023-12-20T06:13:52;8.73;;;7.82;;
73872;SDS011;62206;47.568;9.364;2023-12-20T06:16:20;12.35;;;11.15;;
73872;SDS011;62206;47.568;9.364;2023-12-20T06:18:46;11.23;;;10.20;;
73872;SDS011;62206;47.568;9.364;2023-12-20T06:21:12;9.27;;;8.43;;
73872;SDS011;62206;47.568;9.364;2023-12-20T06:23:41;9.73;;;8.82;;
73872;SDS011;62206;47.568;9.364;2023-12-20T06:26:08;8.27;;;6.82;;
73872;SDS011;62206;47.568;9.364;2023-12-20T06:28:35;7.32;;;6.55;;
73872;SDS011;62206;47.568;9.364;2023-12-20T06:31:02;7.83;;;6.97;;
73872;SDS011;62206;47.568;9.364;2023-12-20T06:33:30;8.57;;;7.10;;
73872;SDS011;62206;47.568;9.364;2023-12-20T06:35:57;7.47;;;6.68;;
73872;SDS011;62206;47.568;9.364;2023-12-20T06:38:24;8.02;;;6.35;;
73872;SDS011;62206;47.568;9.364;2023-12-20T06:40:53;7.90;;;6.18;;
73872;SDS011;62206;47.568;9.364;2023-12-20T06:43:20;8.00;;;7.18;;
73872;SDS011;62206;47.568;9.364;2023-12-20T06:45:48;8.57;;;6.45;;
73872;SDS011;62206;47.568;9.364;2023-12-20T06:48:16;9.50;;;7.00;;
73872;SDS011;62206;47.568;9.364;2023-12-20T06:50:43;7.72;;;6.93;;
73872;SDS011;62206;47.568;9.364;2023-12-20T06:53:10;7.80;;;6.85;;
73872;SDS011;62206;47.568;9.364;2023-12-20T06:55:37;8.47;;;6.07;;
73872;SDS011;62206;47.568;9.364;2023-12-20T06:58:05;6.53;;;5.68;;
73872;SDS011;62206;47.568;9.364;2023-12-20T07:00:33;7.75;;;6.13;;
73872;SDS011;62206;47.568;9.364;2023-12-20T07:03:00;6.63;;;5.50;;
73872;SDS011;62206;47.568;9.364;2023-12-20T07:05:27;7.03;;;6.32;;
73872;SDS011;62206;47.568;9.364;2023-12-20T07:07:55;6.23;;;5.63;;
73872;SDS011;62206;47.568;9.364;2023-12-20T07:10:22;7.60;;;6.18;;
73872;SDS011;62206;47.568;9.364;2023-12-20T07:12:48;6.70;;;5.90;;
73872;SDS011;62206;47.568;9.364;2023-12-20T07:15:18;6.88;;;5.80;;
73872;SDS011;62206;47.568;9.364;2023-12-20T07:17:45;7.70;;;6.00;;
73872;SDS011;62206;47.568;9.364;2023-12-20T07:20:12;5.90;;;5.30;;
73872;SDS011;62206;47.568;9.364;2023-12-20T07:22:39;8.20;;;6.30;;
73872;SDS011;62206;47.568;9.364;2023-12-20T07:25:07;6.50;;;5.53;;
73872;SDS011;62206;47.568;9.364;2023-12-20T07:27:34;6.30;;;5.40;;
73872;SDS011;62206;47.568;9.364;2023-12-20T07:30:01;5.57;;;4.95;;
73872;SDS011;62206;47.568;9.364;2023-12-20T07:32:29;5.10;;;4.60;;
73872;SDS011;62206;47.568;9.364;2023-12-20T07:34:57;6.15;;;5.30;;
73872;SDS011;62206;47.568;9.364;2023-12-20T07:37:24;5.90;;;5.18;;
73872;SDS011;62206;47.568;9.364;2023-12-20T07:39:51;7.50;;;6.60;;
73872;SDS011;62206;47.568;9.364;2023-12-20T07:42:18;7.57;;;5.97;;
73872;SDS011;62206;47.568;9.364;2023-12-20T07:44:47;6.82;;;6.07;;
73872;SDS011;62206;47.568;9.364;2023-12-20T07:47:14;9.25;;;7.32;;
73872;SDS011;62206;47.568;9.364;2023-12-20T07:49:48;7.47;;;6.25;;
73872;SDS011;62206;47.568;9.364;2023-12-20T07:52:16;6.88;;;6.03;;
73872;SDS011;62206;47.568;9.364;2023-12-20T07:54:43;6.38;;;5.78;;
73872;SDS011;62206;47.568;9.364;2023-12-20T07:57:11;6.57;;;5.97;;
73872;SDS011;62206;47.568;9.364;2023-12-20T07:59:38;5.60;;;4.72;;
73872;SDS011;62206;47.568;9.364;2023-12-20T08:02:05;5.93;;;5.32;;
73872;SDS011;62206;47.568;9.364;2023-12-20T08:04:33;8.13;;;6.40;;
73872;SDS011;62206;47.568;9.364;2023-12-20T08:07:01;6.90;;;6.20;;
73872;SDS011;62206;47.568;9.364;2023-12-20T08:09:28;6.53;;;5.93;;
73872;SDS011;62206;47.568;9.364;2023-12-20T08:11:55;7.30;;;6.60;;
73872;SDS011;62206;47.568;9.364;2023-12-20T08:14:23;8.90;;;6.57;;
73872;SDS011;62206;47.568;9.364;2023-12-20T08:16:50;7.18;;;5.80;;
73872;SDS011;62206;47.568;9.364;2023-12-20T08:19:18;6.95;;;5.80;;
73872;SDS011;62206;47.568;9.364;2023-12-20T08:21:45;6.07;;;5.47;;
73872;SDS011;62206;47.568;9.364;2023-12-20T08:24:13;6.80;;;6.10;;
73872;SDS011;62206;47.568;9.364;2023-12-20T08:26:40;7.88;;;6.30;;
73872;SDS011;62206;47.568;9.364;2023-12-20T08:29:07;5.63;;;5.03;;
73872;SDS011;62206;47.568;9.364;2023-12-20T08:31:34;6.70;;;6.00;;
73872;SDS011;62206;47.568;9.364;2023-12-20T08:34:01;6.73;;;5.73;;
73872;SDS011;62206;47.568;9.364;2023-12-20T08:36:28;6.70;;;6.10;;
73872;SDS011;62206;47.568;9.364;2023-12-20T08:38:55;6.88;;;6.18;;
73872;SDS011;62206;47.568;9.364;2023-12-20T08:41:24;6.85;;;6.15;;
73872;SDS011;62206;47.568;9.364;2023-12-20T08:43:51;6.45;;;5.65;;
73872;SDS011;62206;47.568;9.364;2023-12-20T08:46:17;6.70;;;5.83;;
73872;SDS011;62206;47.568;9.364;2023-12-20T08:48:45;6.65;;;5.78;;
73872;SDS011;62206;47.568;9.364;2023-12-20T08:51:12;6.90;;;6.20;;
73872;SDS011;62206;47.568;9.364;2023-12-20T08:53:39;6.20;;;5.60;;
73872;SDS011;62206;47.568;9.364;2023-12-20T08:56:07;7.75;;;6.00;;
73872;SDS011;62206;47.568;9.364;2023-12-20T08:58:35;7.00;;;6.30;;
73872;SDS011;62206;47.568;9.364;2023-12-20T09:01:02;6.63;;;5.57;;
73872;SDS011;62206;47.568;9.364;2023-12-20T09:03:30;6.93;;;6.22;;
73872;SDS011;62206;47.568;9.364;2023-12-20T09:05:57;7.55;;;5.82;;
73872;SDS011;62206;47.568;9.364;2023-12-20T09:08:23;7.82;;;6.43;;
73872;SDS011;62206;47.568;9.364;2023-12-20T09:10:50;7.55;;;6.18;;
73872;SDS011;62206;47.568;9.364;2023-12-20T09:13:17;7.53;;;6.60;;
73872;SDS011;62206;47.568;9.364;2023-12-20T09:15:45;8.68;;;6.78;;
73872;SDS011;62206;47.568;9.364;2023-12-20T09:18:13;8.48;;;7.35;;
73872;SDS011;62206;47.568;9.364;2023-12-20T09:20:40;8.13;;;7.27;;
73872;SDS011;62206;47.568;9.364;2023-12-20T09:23:06;7.75;;;6.95;;
73872;SDS011;62206;47.568;9.364;2023-12-20T09:25:34;7.22;;;6.53;;
73872;SDS011;62206;47.568;9.364;2023-12-20T09:28:01;8.32;;;6.90;;
73872;SDS011;62206;47.568;9.364;2023-12-20T09:30:28;7.53;;;6.72;;
73872;SDS011;62206;47.568;9.364;2023-12-20T09:32:57;7.47;;;6.78;;
73872;SDS011;62206;47.568;9.364;2023-12-20T09:35:24;7.30;;;6.60;;
73872;SDS011;62206;47.568;9.364;2023-12-20T09:37:51;7.38;;;5.60;;
73872;SDS011;62206;47.568;9.364;2023-12-20T09:40:19;6.93;;;6.18;;
73872;SDS011;62206;47.568;9.364;2023-12-20T09:42:48;6.82;;;6.13;;
73872;SDS011;62206;47.568;9.364;2023-12-20T09:45:18;8.45;;;6.15;;
73872;SDS011;62206;47.568;9.364;2023-12-20T09:47:48;7.63;;;6.88;;
73872;SDS011;62206;47.568;9.364;2023-12-20T09:50:17;7.55;;;6.53;;
73872;SDS011;62206;47.568;9.364;2023-12-20T09:52:44;7.78;;;6.30;;
73872;SDS011;62206;47.568;9.364;2023-12-20T09:55:13;7.55;;;6.53;;
73872;SDS011;62206;47.568;9.364;2023-12-20T09:57:40;7.30;;;6.60;;
73872;SDS011;62206;47.568;9.364;2023-12-20T10:00:08;6.65;;;5.28;;
73872;SDS011;62206;47.568;9.364;2023-12-20T10:02:36;8.55;;;5.93;;
73872;SDS011;62206;47.568;9.364;2023-12-20T10:05:06;6.97;;;5.75;;
73872;SDS011;62206;47.568;9.364;2023-12-20T10:07:36;7.13;;;6.47;;
73872;SDS011;62206;47.568;9.364;2023-12-20T10:10:03;6.88;;;6.18;;
73872;SDS011;62206;47.568;9.364;2023-12-20T10:12:31;6.97;;;6.28;;
73872;SDS011;62206;47.568;9.364;2023-12-20T10:14:58;9.00;;;8.20;;
73872;SDS011;62206;47.568;9.364;2023-12-20T10:17:26;7.03;;;6.32;;
73872;SDS011;62206;47.568;9.364;2023-12-20T10:19:55;7.30;;;6.60;;
73872;SDS011;62206;47.568;9.364;2023-12-20T10:22:22;7.28;;;6.57;;
73872;SDS011;62206;47.568;9.364;2023-12-20T10:24:50;6.80;;;5.50;;
73872;SDS011;62206;47.568;9.364;2023-12-20T10:27:17;7.30;;;6.57;;
73872;SDS011;62206;47.568;9.364;2023-12-20T10:29:45;7.15;;;6.45;;
73872;SDS011;62206;47.568;9.364;2023-12-20T10:32:21;8.38;;;6.68;;
73872;SDS011;62206;47.568;9.364;2023-12-20T10:34:49;7.72;;;6.57;;
73872;SDS011;62206;47.568;9.364;2023-12-20T10:37:16;8.57;;;7.43;;
73872;SDS011;62206;47.568;9.364;2023-12-20T10:39:43;7.85;;;6.97;;
73872;SDS011;62206;47.568;9.364;2023-12-20T10:42:12;8.95;;;7.45;;
73872;SDS011;62206;47.568;9.364;2023-12-20T10:44:39;7.93;;;7.13;;
73872;SDS011;62206;47.568;9.364;2023-12-20T10:47:06;7.82;;;7.03;;
73872;SDS011;62206;47.568;9.364;2023-12-20T10:49:33;8.75;;;7.75;;
73872;SDS011;62206;47.568;9.364;2023-12-20T10:52:02;8.93;;;7.68;;
73872;SDS011;62206;47.568;9.364;2023-12-20T10:54:29;7.70;;;6.82;;
73872;SDS011;62206;47.568;9.364;2023-12-20T10:56:56;7.72;;;6.93;;
73872;SDS011;62206;47.568;9.364;2023-12-20T10:59:26;9.55;;;7.30;;
73872;SDS011;62206;47.568;9.364;2023-12-20T11:01:54;8.48;;;7.13;;
73872;SDS011;62206;47.568;9.364;2023-12-20T11:04:23;8.65;;;7.72;;
73872;SDS011;62206;47.568;9.364;2023-12-20T11:06:54;8.90;;;7.32;;
73872;SDS011;62206;47.568;9.364;2023-12-20T11:09:22;8.93;;;8.05;;
73872;SDS011;62206;47.568;9.364;2023-12-20T11:11:56;8.30;;;7.40;;
73872;SDS011;62206;47.568;9.364;2023-12-20T11:14:33;8.25;;;7.20;;
73872;SDS011;62206;47.568;9.364;2023-12-20T11:17:07;8.82;;;7.93;;
73872;SDS011;62206;47.568;9.364;2023-12-20T11:19:35;7.80;;;7.05;;
73872;SDS011;62206;47.568;9.364;2023-12-20T11:22:03;8.35;;;7.05;;
73872;SDS011;62206;47.568;9.364;2023-12-20T11:24:31;9.10;;;8.13;;
73872;SDS011;62206;47.568;9.364;2023-12-20T11:26:59;11.25;;;10.07;;
73872;SDS011;62206;47.568;9.364;2023-12-20T11:29:34;11.13;;;10.02;;
73872;SDS011;62206;47.568;9.364;2023-12-20T11:32:03;8.73;;;7.93;;
73872;SDS011;62206;47.568;9.364;2023-12-20T11:34:31;8.48;;;7.68;;
73872;SDS011;62206;47.568;9.364;2023-12-20T11:36:59;8.38;;;7.55;;
73872;SDS011;62206;47.568;9.364;2023-12-20T11:39:28;8.10;;;7.30;;
73872;SDS011;62206;47.568;9.364;2023-12-20T11:41:57;7.70;;;6.60;;
73872;SDS011;62206;47.568;9.364;2023-12-20T11:44:25;8.10;;;7.30;;
73872;SDS011;62206;47.568;9.364;2023-12-20T11:46:56;8.35;;;7.45;;
73872;SDS011;62206;47.568;9.364;2023-12-20T11:49:23;7.75;;;6.95;;
73872;SDS011;62206;47.568;9.364;2023-12-20T11:51:50;9.20;;;8.40;;
73872;SDS011;62206;47.568;9.364;2023-12-20T11:54:18;8.80;;;7.90;;
73872;SDS011;62206;47.568;9.364;2023-12-20T11:56:45;8.95;;;8.05;;
73872;SDS011;62206;47.568;9.364;2023-12-20T11:59:12;7.68;;;6.72;;
73872;SDS011;62206;47.568;9.364;2023-12-20T12:01:40;7.97;;;7.20;;
73872;SDS011;62206;47.568;9.364;2023-12-20T12:04:08;7.93;;;7.13;;
73872;SDS011;62206;47.568;9.364;2023-12-20T12:06:35;7.80;;;7.10;;
73872;SDS011;62206;47.568;9.364;2023-12-20T12:09:03;8.65;;;7.80;;
73872;SDS011;62206;47.568;9.364;2023-12-20T12:11:30;8.75;;;7.95;;
73872;SDS011;62206;47.568;9.364;2023-12-20T12:13:56;7.78;;;6.97;;
73872;SDS011;62206;47.568;9.364;2023-12-20T12:16:24;8.27;;;7.53;;
73872;SDS011;62206;47.568;9.364;2023-12-20T12:18:55;9.05;;;7.43;;
73872;SDS011;62206;47.568;9.364;2023-12-20T12:21:24;7.90;;;6.88;;
73872;SDS011;62206;47.568;9.364;2023-12-20T12:23:51;8.38;;;7.57;;
73872;SDS011;62206;47.568;9.364;2023-12-20T12:26:19;7.88;;;7.07;;
73872;SDS011;62206;47.568;9.364;2023-12-20T12:28:46;7.65;;;6.95;;
73872;SDS011;62206;47.568;9.364;2023-12-20T12:31:13;8.00;;;7.13;;
73872;SDS011;62206;47.568;9.364;2023-12-20T12:33:41;7.70;;;6.90;;
73872;SDS011;62206;47.568;9.364;2023-12-20T12:36:09;7.82;;;7.03;;
73872;SDS011;62206;47.568;9.364;2023-12-20T12:38:38;7.17;;;6.47;;
73872;SDS011;62206;47.568;9.364;2023-12-20T12:41:05;7.25;;;6.55;;
73872;SDS011;62206;47.568;9.364;2023-12-20T12:43:32;6.05;;;5.45;;
73872;SDS011;62206;47.568;9.364;2023-12-20T12:46:00;6.85;;;6.18;;
73872;SDS011;62206;47.568;9.364;2023-12-20T12:48:27;6.97;;;6.28;;
73872;SDS011;62206;47.568;9.364;2023-12-20T12:50:54;7.93;;;7.13;;
73872;SDS011;62206;47.568;9.364;2023-12-20T12:53:24;6.95;;;6.35;;
73872;SDS011;62206;47.568;9.364;2023-12-20T12:55:54;6.50;;;5.90;;
73872;SDS011;62206;47.568;9.364;2023-12-20T12:58:21;6.25;;;5.65;;
73872;SDS011;62206;47.568;9.364;2023-12-20T13:00:50;6.20;;;5.60;;
73872;SDS011;62206;47.568;9.364;2023-12-20T13:03:18;5.97;;;5.38;;
73872;SDS011;62206;47.568;9.364;2023-12-20T13:05:45;5.47;;;4.97;;
73872;SDS011;62206;47.568;9.364;2023-12-20T13:08:12;6.28;;;5.72;;
73872;SDS011;62206;47.568;9.364;2023-12-20T13:10:40;5.10;;;4.60;;
73872;SDS011;62206;47.568;9.364;2023-12-20T13:13:08;5.30;;;4.80;;
73872;SDS011;62206;47.568;9.364;2023-12-20T13:15:35;5.72;;;5.22;;
73872;SDS011;62206;47.568;9.364;2023-12-20T13:18:02;5.35;;;4.72;;
73872;SDS011;62206;47.568;9.364;2023-12-20T13:20:31;5.55;;;5.05;;
73872;SDS011;62206;47.568;9.364;2023-12-20T13:22:58;4.65;;;4.20;;
73872;SDS011;62206;47.568;9.364;2023-12-20T13:25:26;5.65;;;5.15;;
73872;SDS011;62206;47.568;9.364;2023-12-20T13:27:53;5.47;;;4.97;;
73872;SDS011;62206;47.568;9.364;2023-12-20T13:30:21;5.65;;;5.15;;
73872;SDS011;62206;47.568;9.364;2023-12-20T13:32:48;5.80;;;5.30;;
73872;SDS011;62206;47.568;9.364;2023-12-20T13:35:15;6.13;;;5.47;;
73872;SDS011;62206;47.568;9.364;2023-12-20T13:37:42;5.40;;;4.90;;
73872;SDS011;62206;47.568;9.364;2023-12-20T13:40:10;5.60;;;5.10;;
73872;SDS011;62206;47.568;9.364;2023-12-20T13:42:37;5.95;;;5.38;;
73872;SDS011;62206;47.568;9.364;2023-12-20T13:45:05;5.55;;;5.05;;
73872;SDS011;62206;47.568;9.364;2023-12-20T13:47:34;5.70;;;5.10;;
73872;SDS011;62206;47.568;9.364;2023-12-20T13:50:02;5.53;;;5.03;;
73872;SDS011;62206;47.568;9.364;2023-12-20T13:52:29;5.40;;;4.90;;
73872;SDS011;62206;47.568;9.364;2023-12-20T13:54:56;5.97;;;5.38;;
73872;SDS011;62206;47.568;9.364;2023-12-20T13:57:23;5.97;;;4.85;;
73872;SDS011;62206;47.568;9.364;2023-12-20T13:59:50;5.90;;;5.40;;
73872;SDS011;62206;47.568;9.364;2023-12-20T14:02:17;6.70;;;4.38;;
73872;SDS011;62206;47.568;9.364;2023-12-20T14:04:46;5.60;;;5.10;;
73872;SDS011;62206;47.568;9.364;2023-12-20T14:07:12;6.10;;;4.93;;
73872;SDS011;62206;47.568;9.364;2023-12-20T14:09:40;5.30;;;4.75;;
73872;SDS011;62206;47.568;9.364;2023-12-20T14:12:10;5.80;;;4.85;;
73872;SDS011;62206;47.568;9.364;2023-12-20T14:14:37;5.13;;;4.63;;
73872;SDS011;62206;47.568;9.364;2023-12-20T14:17:04;5.47;;;4.93;;
73872;SDS011;62206;47.568;9.364;2023-12-20T14:19:32;5.63;;;5.13;;
73872;SDS011;62206;47.568;9.364;2023-12-20T14:22:00;5.93;;;5.32;;
73872;SDS011;62206;47.568;9.364;2023-12-20T14:24:29;4.63;;;4.15;;
73872;SDS011;62206;47.568;9.364;2023-12-20T14:26:56;5.20;;;4.35;;
73872;SDS011;62206;47.568;9.364;2023-12-20T14:29:23;5.57;;;5.07;;
73872;SDS011;62206;47.568;9.364;2023-12-20T14:31:51;5.85;;;5.30;;
73872;SDS011;62206;47.568;9.364;2023-12-20T14:34:18;4.85;;;4.35;;
73872;SDS011;62206;47.568;9.364;2023-12-20T14:36:44;4.70;;;4.20;;
73872;SDS011;62206;47.568;9.364;2023-12-20T14:39:13;5.18;;;4.35;;
73872;SDS011;62206;47.568;9.364;2023-12-20T14:41:42;5.40;;;4.80;;
73872;SDS011;62206;47.568;9.364;2023-12-20T14:44:08;5.60;;;4.70;;
73872;SDS011;62206;47.568;9.364;2023-12-20T14:46:36;5.85;;;5.35;;